Time;durP1;ratioP1;P1;durP2;ratioP2;P2;SDS_P1;SDS_P2;PMS_P1;PMS_P2;Temp;Humidity;BMP_temperature;BMP_pressure;BME280_temperature;BME280_humidity;BME280_pressure;Samples;Min_cycle;Max_cycle;Signal;HPM_P1;HPM_P2
2023/11/21 00:00:55;;;;;;;19.17;15.57;;;6.80;99.90;;;;;;5058280;28;20552;-63
2023/11/21 00:03:23;;;;;;;20.67;16.10;;;6.90;99.90;;;;;;5058868;28;20465;-64
2023/11/21 00:05:50;;;;;;;22.00;17.20;;;6.80;99.90;;;;;;5058157;28;20458;-64
2023/11/21 00:08:18;;;;;;;24.57;16.50;;;6.80;99.90;;;;;;5058065;28;20564;-63
2023/11/21 00:10:48;;;;;;;18.93;15.37;;;6.80;99.90;;;;;;5058753;28;20469;-63
2023/11/21 00:13:15;;;;;;;19.40;14.97;;;6.90;99.90;;;;;;5058239;28;20462;-63
2023/11/21 00:15:43;;;;;;;28.17;19.03;;;6.90;99.90;;;;;;5058546;28;20581;-63
2023/11/21 00:18:10;;;;;;;25.87;18.70;;;6.90;99.90;;;;;;5058564;28;20510;-63
2023/11/21 00:20:37;;;;;;;24.40;16.23;;;6.90;99.90;;;;;;5058721;28;20520;-63
2023/11/21 00:23:05;;;;;;;25.60;15.90;;;6.90;99.90;;;;;;5058283;28;20678;-63
2023/11/21 00:25:32;;;;;;;28.20;16.77;;;6.90;99.90;;;;;;5057816;28;20458;-63
2023/11/21 00:28:01;;;;;;;20.47;14.97;;;6.90;99.90;;;;;;5058218;28;20519;-62
2023/11/21 00:30:29;;;;;;;18.97;15.00;;;6.90;99.90;;;;;;5058454;28;20462;-63
2023/11/21 00:32:56;;;;;;;21.23;15.43;;;6.90;99.90;;;;;;5057851;28;20462;-63
2023/11/21 00:35:24;;;;;;;26.00;17.03;;;6.80;99.90;;;;;;5057777;28;20526;-62
2023/11/21 00:37:51;;;;;;;19.30;15.43;;;6.80;99.90;;;;;;5057906;28;20466;-63
2023/11/21 00:40:20;;;;;;;26.97;16.67;;;6.70;99.90;;;;;;5058136;28;20504;-63
2023/11/21 00:42:48;;;;;;;26.07;14.37;;;6.70;99.90;;;;;;5058106;28;20761;-63
2023/11/21 00:45:17;;;;;;;19.73;15.37;;;6.70;99.90;;;;;;5057613;28;20557;-63
2023/11/21 00:47:44;;;;;;;24.53;16.30;;;6.70;99.90;;;;;;5057615;28;20547;-63
2023/11/21 00:50:11;;;;;;;23.20;16.00;;;6.70;99.90;;;;;;5057848;28;20480;-64
2023/11/21 00:52:39;;;;;;;28.30;18.67;;;6.70;99.90;;;;;;5057793;28;20462;-63
2023/11/21 00:55:07;;;;;;;31.43;17.03;;;6.70;99.90;;;;;;5057044;28;20482;-63
2023/11/21 00:57:38;;;;;;;32.90;18.43;;;6.70;99.90;;;;;;5057266;28;20466;-63
2023/11/21 01:00:13;;;;;;;36.53;19.00;;;6.70;99.90;;;;;;5057548;28;20568;-64
2023/11/21 01:02:43;;;;;;;34.33;18.90;;;6.80;99.90;;;;;;5057724;28;20462;-63
2023/11/21 01:05:10;;;;;;;38.03;18.33;;;6.90;99.90;;;;;;5057465;28;20458;-62
2023/11/21 01:07:37;;;;;;;31.53;17.17;;;6.90;99.90;;;;;;5057346;28;20536;-63
2023/11/21 01:10:07;;;;;;;34.43;20.03;;;6.90;99.90;;;;;;5057777;28;20895;-63
2023/11/21 01:12:35;;;;;;;30.00;17.87;;;7.00;99.90;;;;;;5057310;28;20467;-63
2023/11/21 01:15:03;;;;;;;28.20;16.40;;;7.00;99.90;;;;;;5056862;28;20548;-63
2023/11/21 01:17:30;;;;;;;20.77;15.80;;;7.00;99.90;;;;;;5057220;28;20803;-63
2023/11/21 01:20:00;;;;;;;23.53;15.93;;;7.00;99.90;;;;;;5057696;28;20887;-63
2023/11/21 01:22:28;;;;;;;24.20;18.80;;;6.90;99.90;;;;;;5057290;28;20536;-63
2023/11/21 01:24:55;;;;;;;27.07;17.50;;;6.90;99.90;;;;;;5057519;28;20894;-63
2023/11/21 01:27:23;;;;;;;32.63;20.70;;;6.90;99.90;;;;;;5057027;28;20803;-63
2023/11/21 01:29:53;;;;;;;25.90;19.33;;;6.90;99.90;;;;;;5056483;28;20470;-63
2023/11/21 01:32:20;;;;;;;19.10;15.00;;;6.90;99.90;;;;;;5057221;28;20457;-63
2023/11/21 01:34:48;;;;;;;22.30;15.57;;;6.90;99.90;;;;;;5057381;28;20512;-63
2023/11/21 01:37:17;;;;;;;24.13;16.43;;;6.90;99.90;;;;;;5057034;28;20462;-62
2023/11/21 01:39:45;;;;;;;18.50;14.97;;;6.80;99.90;;;;;;5057096;28;20497;-63
2023/11/21 01:42:13;;;;;;;20.00;15.37;;;6.80;99.90;;;;;;5056999;28;20763;-63
2023/11/21 01:44:40;;;;;;;19.90;14.80;;;6.80;99.90;;;;;;5056553;28;20459;-63
2023/11/21 01:47:09;;;;;;;31.67;17.77;;;6.80;99.90;;;;;;5056769;28;20458;-63
2023/11/21 01:49:36;;;;;;;23.20;16.30;;;6.80;99.90;;;;;;5056916;28;20455;-63
2023/11/21 01:52:05;;;;;;;24.10;16.97;;;6.80;99.90;;;;;;5057270;28;20732;-63
2023/11/21 01:54:36;;;;;;;30.07;18.13;;;6.80;99.90;;;;;;5057244;28;20891;-63
2023/11/21 01:57:06;;;;;;;21.27;16.50;;;6.80;99.90;;;;;;5056328;28;20548;-63
2023/11/21 01:59:36;;;;;;;27.57;20.00;;;6.80;99.90;;;;;;5056422;28;20501;-63
2023/11/21 02:02:04;;;;;;;31.27;18.40;;;6.80;99.90;;;;;;5056715;28;20498;-63
2023/11/21 02:04:32;;;;;;;27.23;16.77;;;6.90;99.90;;;;;;5056866;28;20469;-63
2023/11/21 02:07:00;;;;;;;20.50;17.07;;;6.90;99.90;;;;;;5056376;28;20989;-63
2023/11/21 02:09:29;;;;;;;23.40;19.20;;;6.90;99.90;;;;;;5056497;28;20933;-63
2023/11/21 02:11:58;;;;;;;47.00;27.50;;;6.90;99.90;;;;;;5061017;28;20462;-62
2023/11/21 02:14:27;;;;;;;34.50;20.60;;;7.00;99.90;;;;;;5060873;28;20480;-63
2023/11/21 02:16:57;;;;;;;23.70;15.93;;;7.00;99.90;;;;;;5060259;28;20541;-63
2023/11/21 02:19:25;;;;;;;24.67;15.60;;;7.00;99.90;;;;;;5060642;28;20461;-63
2023/11/21 02:21:53;;;;;;;22.17;15.80;;;7.00;99.90;;;;;;5060656;28;20895;-63
2023/11/21 02:24:23;;;;;;;25.00;17.43;;;7.00;99.90;;;;;;5060585;28;20564;-63
2023/11/21 02:26:51;;;;;;;23.63;16.93;;;6.90;99.90;;;;;;5060643;28;20926;-63
2023/11/21 02:29:21;;;;;;;23.47;16.77;;;6.90;99.90;;;;;;5059623;28;20509;-63
2023/11/21 02:31:49;;;;;;;21.30;16.93;;;6.90;99.90;;;;;;5060332;28;20465;-64
2023/11/21 02:34:16;;;;;;;24.80;17.63;;;6.90;99.90;;;;;;5060454;28;20729;-63
2023/11/21 02:36:44;;;;;;;29.40;19.40;;;7.00;99.90;;;;;;5060636;28;20490;-63
2023/11/21 02:39:13;;;;;;;26.53;21.37;;;7.10;99.90;;;;;;5060434;28;20457;-63
2023/11/21 02:41:41;;;;;;;35.13;22.23;;;7.10;99.90;;;;;;5060358;28;20552;-62
2023/11/21 02:44:09;;;;;;;34.30;24.27;;;7.10;99.90;;;;;;5060217;28;20459;-63
2023/11/21 02:46:39;;;;;;;33.20;24.07;;;7.10;99.90;;;;;;5060193;28;20734;-62
2023/11/21 02:49:07;;;;;;;27.00;22.40;;;7.10;99.90;;;;;;5060096;28;20468;-63
2023/11/21 02:51:34;;;;;;;30.87;24.37;;;7.20;99.90;;;;;;5060179;28;20537;-63
2023/11/21 02:54:05;;;;;;;40.00;28.10;;;7.20;99.90;;;;;;5060331;28;20458;-62
2023/11/21 02:56:32;;;;;;;35.30;25.60;;;7.20;99.90;;;;;;5059929;28;20588;-63
2023/11/21 02:59:01;;;;;;;32.07;23.63;;;7.10;99.90;;;;;;5059370;28;20457;-62
2023/11/21 03:01:29;;;;;;;31.80;24.13;;;7.10;99.90;;;;;;5060008;28;20489;-62
2023/11/21 03:03:56;;;;;;;38.97;24.73;;;7.00;99.90;;;;;;5059621;28;20469;-63
2023/11/21 03:06:24;;;;;;;36.47;24.07;;;7.00;99.90;;;;;;5060031;28;20829;-63
2023/11/21 03:08:51;;;;;;;32.37;25.27;;;7.00;99.90;;;;;;5059607;28;20516;-63
2023/11/21 03:11:19;;;;;;;33.43;23.67;;;7.10;99.90;;;;;;5059570;28;20892;-63
2023/11/21 03:13:46;;;;;;;30.40;23.77;;;7.00;99.90;;;;;;5059750;28;20493;-63
2023/11/21 03:16:16;;;;;;;30.30;23.00;;;7.00;99.90;;;;;;5059934;28;20526;-63
2023/11/21 03:18:44;;;;;;;33.23;22.97;;;7.00;99.90;;;;;;5059761;28;20481;-63
2023/11/21 03:21:11;;;;;;;32.77;24.10;;;7.00;99.90;;;;;;5058482;28;20760;-63
2023/11/21 03:23:39;;;;;;;32.50;23.67;;;7.00;99.90;;;;;;5059224;28;20953;-63
2023/11/21 03:26:08;;;;;;;31.03;22.93;;;7.00;99.90;;;;;;5059358;28;20454;-63
2023/11/21 03:28:35;;;;;;;30.47;22.60;;;7.00;99.90;;;;;;5059370;28;20509;-63
2023/11/21 03:31:02;;;;;;;33.70;22.80;;;7.00;99.90;;;;;;5059050;28;20472;-62
2023/11/21 03:33:31;;;;;;;25.77;21.13;;;7.10;99.90;;;;;;5059654;28;20466;-63
2023/11/21 03:35:58;;;;;;;26.03;20.60;;;7.10;99.90;;;;;;5058829;28;20486;-62
2023/11/21 03:38:25;;;;;;;32.23;21.50;;;7.00;99.90;;;;;;5058671;28;20572;-63
2023/11/21 03:40:53;;;;;;;29.30;22.23;;;7.10;99.90;;;;;;5057451;28;20750;-63
2023/11/21 03:43:20;;;;;;;29.57;20.63;;;7.10;99.90;;;;;;5058305;28;20464;-63
2023/11/21 03:45:48;;;;;;;28.83;20.83;;;7.10;99.90;;;;;;5059124;28;20915;-62
2023/11/21 03:48:16;;;;;;;26.00;19.80;;;7.10;99.90;;;;;;5059122;28;20779;-62
2023/11/21 03:50:44;;;;;;;29.07;19.60;;;7.10;99.90;;;;;;5059082;28;20497;-63
2023/11/21 03:53:12;;;;;;;28.27;21.70;;;7.10;99.90;;;;;;5058929;28;20465;-62
2023/11/21 03:55:39;;;;;;;28.80;19.73;;;7.10;99.90;;;;;;5058317;28;20552;-62
2023/11/21 03:58:06;;;;;;;28.70;20.97;;;7.00;99.90;;;;;;5059008;28;20557;-62
2023/11/21 04:00:33;;;;;;;27.10;19.20;;;7.00;99.90;;;;;;5059022;28;20512;-63
2023/11/21 04:03:00;;;;;;;26.43;18.50;;;7.10;99.90;;;;;;5058848;28;20545;-63
2023/11/21 04:05:28;;;;;;;29.70;19.13;;;7.10;99.90;;;;;;5058599;28;20883;-62
2023/11/21 04:07:56;;;;;;;29.43;18.33;;;7.10;99.90;;;;;;5058319;28;20486;-62
2023/11/21 04:10:23;;;;;;;27.30;19.00;;;7.10;99.90;;;;;;5058179;28;20470;-62
2023/11/21 04:12:51;;;;;;;24.13;18.33;;;7.00;99.90;;;;;;5058894;28;20806;-62
2023/11/21 04:15:18;;;;;;;27.13;18.27;;;7.00;99.90;;;;;;5058398;28;20930;-63
2023/11/21 04:17:45;;;;;;;27.30;17.93;;;7.00;99.90;;;;;;5058555;28;20588;-62
2023/11/21 04:20:12;;;;;;;21.30;16.60;;;7.00;99.90;;;;;;5058492;28;20744;-62
2023/11/21 04:22:43;;;;;;;26.63;17.10;;;7.00;99.90;;;;;;5058783;28;20458;-63
2023/11/21 04:25:14;;;;;;;23.90;17.10;;;7.10;99.90;;;;;;5058302;28;20520;-62
2023/11/21 04:27:43;;;;;;;26.60;18.03;;;7.10;99.90;;;;;;5060187;28;20468;-62
2023/11/21 04:30:11;;;;;;;25.53;18.83;;;7.10;99.90;;;;;;5077299;28;20465;-62
2023/11/21 04:32:38;;;;;;;23.33;17.87;;;7.10;99.90;;;;;;5077911;28;20886;-62
2023/11/21 04:35:08;;;;;;;22.00;17.73;;;7.20;99.90;;;;;;5077700;28;20465;-62
2023/11/21 04:37:35;;;;;;;29.73;21.50;;;7.20;99.90;;;;;;5077595;28;20545;-62
2023/11/21 04:40:06;;;;;;;26.27;20.13;;;7.20;99.90;;;;;;5078069;28;20463;-62
2023/11/21 04:42:36;;;;;;;28.53;18.50;;;7.10;99.90;;;;;;5078358;28;20564;-62
2023/11/21 04:45:08;;;;;;;28.60;20.20;;;7.10;99.90;;;;;;5077852;28;20457;-62
2023/11/21 04:47:35;;;;;;;26.10;20.00;;;7.00;99.90;;;;;;5077977;28;20630;-63
2023/11/21 04:50:03;;;;;;;25.67;19.03;;;7.00;99.90;;;;;;5077876;28;20530;-62
2023/11/21 04:52:30;;;;;;;24.97;18.87;;;7.00;99.90;;;;;;5077814;28;20457;-62
2023/11/21 04:54:58;;;;;;;26.93;18.60;;;7.00;99.90;;;;;;5077272;28;20458;-62
2023/11/21 04:57:25;;;;;;;27.17;18.47;;;7.00;99.90;;;;;;5077237;28;20489;-62
2023/11/21 04:59:54;;;;;;;30.00;18.80;;;7.00;99.90;;;;;;5077551;28;20760;-62
2023/11/21 05:02:22;;;;;;;24.73;18.00;;;7.00;99.90;;;;;;5077880;28;20736;-62
2023/11/21 05:04:49;;;;;;;26.10;17.93;;;7.00;99.90;;;;;;5078131;28;20453;-62
2023/11/21 05:07:16;;;;;;;24.37;18.93;;;7.00;99.90;;;;;;5077229;28;20532;-63
2023/11/21 05:09:47;;;;;;;22.87;17.13;;;7.00;99.90;;;;;;5077677;28;20490;-62
2023/11/21 05:12:15;;;;;;;23.00;18.77;;;7.00;99.90;;;;;;5077820;28;20493;-63
2023/11/21 05:14:43;;;;;;;25.60;17.70;;;7.00;99.90;;;;;;5077492;28;20462;-62
2023/11/21 05:17:14;;;;;;;22.17;16.87;;;7.00;99.90;;;;;;5077457;28;20515;-63
2023/11/21 05:19:41;;;;;;;23.97;17.70;;;7.10;99.90;;;;;;5077255;28;20457;-63
2023/11/21 05:22:09;;;;;;;20.83;16.90;;;7.10;99.90;;;;;;5077362;28;20458;-63
2023/11/21 05:24:36;;;;;;;25.00;18.37;;;7.10;99.90;;;;;;5077391;28;20883;-62
2023/11/21 05:27:03;;;;;;;23.53;18.13;;;7.10;99.90;;;;;;5077058;28;20453;-62
2023/11/21 05:29:31;;;;;;;24.07;19.50;;;7.10;99.90;;;;;;5076322;28;20438;-62
2023/11/21 05:31:58;;;;;;;30.63;19.20;;;7.10;99.90;;;;;;5076840;28;20556;-62
2023/11/21 05:34:26;;;;;;;25.83;18.90;;;7.00;99.90;;;;;;5076104;28;20457;-63
2023/11/21 05:36:53;;;;;;;28.50;18.73;;;7.00;99.90;;;;;;5077101;28;20500;-63
2023/11/21 05:39:21;;;;;;;29.33;20.77;;;7.00;99.90;;;;;;5076725;28;20457;-63
2023/11/21 05:41:49;;;;;;;26.87;20.40;;;7.00;99.90;;;;;;5077265;28;20521;-63
2023/11/21 05:44:16;;;;;;;27.57;18.57;;;6.90;99.90;;;;;;5076757;28;20465;-63
2023/11/21 05:46:44;;;;;;;23.17;16.90;;;6.90;99.90;;;;;;5077127;28;20552;-62
2023/11/21 05:49:11;;;;;;;27.83;17.60;;;6.80;99.90;;;;;;5076584;28;20468;-63
2023/11/21 05:51:40;;;;;;;24.80;17.57;;;6.80;99.90;;;;;;5076871;28;20555;-62
2023/11/21 05:54:07;;;;;;;21.47;17.03;;;6.70;99.90;;;;;;5077104;28;20956;-62
2023/11/21 05:56:35;;;;;;;28.37;18.67;;;6.70;99.90;;;;;;5077029;28;20493;-62
2023/11/21 05:59:03;;;;;;;27.57;18.80;;;6.70;99.90;;;;;;5076586;28;20495;-63
2023/11/21 06:01:30;;;;;;;24.17;17.83;;;6.80;99.90;;;;;;5076327;28;20512;-63
2023/11/21 06:03:57;;;;;;;28.53;19.07;;;6.80;99.90;;;;;;5076446;28;20560;-63
2023/11/21 06:06:26;;;;;;;26.07;17.23;;;6.80;99.90;;;;;;5076903;28;20985;-62
2023/11/21 06:08:55;;;;;;;27.33;18.70;;;6.80;99.90;;;;;;5076343;28;20462;-63
2023/11/21 06:11:22;;;;;;;23.57;16.77;;;6.80;99.90;;;;;;5076598;28;20908;-63
2023/11/21 06:13:52;;;;;;;29.87;19.33;;;6.80;99.90;;;;;;5076974;28;20457;-62
2023/11/21 06:16:19;;;;;;;27.70;17.70;;;6.80;99.90;;;;;;5075996;28;20493;-63
2023/11/21 06:18:47;;;;;;;27.40;17.33;;;6.90;99.90;;;;;;5076910;28;20611;-63
2023/11/21 06:21:16;;;;;;;23.67;18.43;;;6.90;99.90;;;;;;5076213;28;20457;-62
2023/11/21 06:23:43;;;;;;;26.03;18.97;;;6.90;99.90;;;;;;5077155;28;20461;-63
2023/11/21 06:26:12;;;;;;;22.97;17.27;;;6.90;99.90;;;;;;5076282;28;20457;-63
2023/11/21 06:28:40;;;;;;;22.80;17.00;;;6.90;99.90;;;;;;5076510;28;20462;-63
2023/11/21 06:31:07;;;;;;;27.67;18.00;;;7.00;99.90;;;;;;5076099;28;20848;-63
2023/11/21 06:33:34;;;;;;;27.60;18.37;;;7.10;99.90;;;;;;5076130;28;20500;-63
2023/11/21 06:36:02;;;;;;;28.70;18.87;;;7.10;99.90;;;;;;5076329;28;20559;-63
2023/11/21 06:38:31;;;;;;;27.77;18.37;;;7.10;99.90;;;;;;5074494;28;20524;-63
2023/11/21 06:41:01;;;;;;;26.93;19.37;;;7.10;99.90;;;;;;5074811;28;20479;-62
2023/11/21 06:43:31;;;;;;;27.87;19.40;;;7.10;99.90;;;;;;5075016;28;20526;-63
2023/11/21 06:45:58;;;;;;;24.47;18.53;;;7.10;99.90;;;;;;5075277;28;20458;-63
2023/11/21 06:48:26;;;;;;;28.00;18.50;;;7.00;99.90;;;;;;5075262;28;20466;-63
2023/11/21 06:50:53;;;;;;;23.90;16.80;;;6.90;99.90;;;;;;5075326;28;20468;-62
2023/11/21 06:53:21;;;;;;;34.40;18.30;;;7.00;99.90;;;;;;5076006;28;20458;-63
2023/11/21 06:55:48;;;;;;;29.93;17.63;;;6.90;99.90;;;;;;5076468;28;20457;-63
2023/11/21 06:58:15;;;;;;;26.10;17.13;;;7.00;99.90;;;;;;5079769;28;20532;-62
2023/11/21 07:00:46;;;;;;;32.47;19.87;;;7.00;99.90;;;;;;5080078;28;20485;-63
2023/11/21 07:03:14;;;;;;;30.40;19.37;;;7.10;99.90;;;;;;5078616;28;20458;-63
2023/11/21 07:05:41;;;;;;;29.50;17.63;;;7.10;99.90;;;;;;5079343;28;20925;-63
2023/11/21 07:08:08;;;;;;;27.63;19.33;;;7.10;99.90;;;;;;5079235;28;20456;-63
2023/11/21 07:10:36;;;;;;;47.20;30.37;;;7.20;99.90;;;;;;5079902;28;20870;-63
2023/11/21 07:13:03;;;;;;;55.40;36.33;;;7.20;99.90;;;;;;5080128;28;20515;-63
2023/11/21 07:15:31;;;;;;;41.60;26.43;;;7.20;99.90;;;;;;5079802;28;20547;-63
2023/11/21 07:17:59;;;;;;;39.53;22.90;;;7.20;99.90;;;;;;5079595;28;20530;-62
2023/11/21 07:20:27;;;;;;;103.83;60.27;;;7.30;99.90;;;;;;5079544;28;20465;-63
2023/11/21 07:22:55;;;;;;;55.13;35.17;;;7.30;99.90;;;;;;5077558;28;20461;-63
2023/11/21 07:25:23;;;;;;;47.93;31.00;;;7.30;99.90;;;;;;5077964;28;20461;-63
2023/11/21 07:27:50;;;;;;;43.90;25.20;;;7.40;99.90;;;;;;5077811;28;20451;-63
2023/11/21 07:30:17;;;;;;;36.10;23.63;;;7.40;99.90;;;;;;5076952;28;20453;-63
2023/11/21 07:32:46;;;;;;;38.40;23.67;;;7.40;99.90;;;;;;5078275;28;20468;-63
2023/11/21 07:35:15;;;;;;;38.43;22.33;;;7.40;99.90;;;;;;5078149;28;20461;-63
2023/11/21 07:37:43;;;;;;;39.70;23.10;;;7.50;99.90;;;;;;5078736;28;20525;-62
2023/11/21 07:40:11;;;;;;;47.47;28.10;;;7.40;99.90;;;;;;5079513;28;20559;-63
2023/11/21 07:42:39;;;;;;;58.00;35.17;;;7.50;99.90;;;;;;5079090;28;20457;-63
2023/11/21 07:45:08;;;;;;;48.67;31.00;;;7.50;99.90;;;;;;5078880;28;20501;-63
2023/11/21 07:47:35;;;;;;;49.37;28.03;;;7.50;99.90;;;;;;5078777;28;20457;-63
2023/11/21 07:50:04;;;;;;;43.13;26.03;;;7.60;99.90;;;;;;5078910;28;20523;-63
2023/11/21 07:52:32;;;;;;;39.40;22.63;;;7.60;99.90;;;;;;5079172;28;20492;-63
2023/11/21 07:55:00;;;;;;;42.60;29.97;;;7.60;99.90;;;;;;5078266;28;20552;-63
2023/11/21 07:57:27;;;;;;;39.73;25.73;;;7.60;99.90;;;;;;5078358;28;20816;-63
2023/11/21 07:59:55;;;;;;;32.70;20.03;;;7.70;99.90;;;;;;5078383;28;20557;-62
2023/11/21 08:02:22;;;;;;;32.57;20.63;;;7.70;99.90;;;;;;5078718;28;20514;-63
2023/11/21 08:04:50;;;;;;;33.93;20.47;;;7.70;99.90;;;;;;5078503;28;20912;-63
2023/11/21 08:07:18;;;;;;;29.40;16.83;;;7.80;99.90;;;;;;5076382;28;20926;-63
2023/11/21 08:09:49;;;;;;;26.37;15.87;;;7.80;99.90;;;;;;5076202;28;20830;-63
2023/11/21 08:12:17;;;;;;;27.30;18.50;;;7.80;99.90;;;;;;5076608;28;20820;-63
2023/11/21 08:14:44;;;;;;;33.53;17.60;;;7.80;99.90;;;;;;5076683;28;20457;-63
2023/11/21 08:17:11;;;;;;;29.90;18.40;;;7.80;99.90;;;;;;5076617;28;20584;-63
2023/11/21 08:19:39;;;;;;;24.90;16.97;;;7.80;99.90;;;;;;5078309;28;20547;-63
2023/11/21 08:22:07;;;;;;;28.93;16.93;;;7.80;99.90;;;;;;5078104;28;20497;-63
2023/11/21 08:24:35;;;;;;;26.90;17.00;;;7.90;99.90;;;;;;5078553;28;20874;-63
2023/11/21 08:27:04;;;;;;;27.90;17.57;;;7.90;99.90;;;;;;5078074;28;20464;-62
2023/11/21 08:29:32;;;;;;;29.37;16.50;;;8.00;99.90;;;;;;5077245;28;20446;-63
2023/11/21 08:31:59;;;;;;;25.77;17.30;;;8.10;99.90;;;;;;5077852;28;20463;-63
2023/11/21 08:34:28;;;;;;;30.53;17.00;;;8.10;99.90;;;;;;5078426;28;20457;-62
2023/11/21 08:36:55;;;;;;;24.77;16.03;;;8.10;99.90;;;;;;5078201;28;20472;-62
2023/11/21 08:39:24;;;;;;;23.70;16.30;;;8.00;99.90;;;;;;5077921;28;20827;-62
2023/11/21 08:41:51;;;;;;;27.00;16.80;;;8.10;99.90;;;;;;5078211;28;20468;-63
2023/11/21 08:44:22;;;;;;;25.40;16.53;;;8.20;99.90;;;;;;5077922;28;20463;-63
2023/11/21 08:46:50;;;;;;;31.30;18.70;;;8.30;99.90;;;;;;5077108;28;20469;-62
2023/11/21 08:49:17;;;;;;;29.40;17.60;;;8.30;99.90;;;;;;5075870;28;20481;-64
2023/11/21 08:51:46;;;;;;;32.80;19.10;;;8.40;99.90;;;;;;5076439;28;20457;-63
2023/11/21 08:54:14;;;;;;;39.43;23.00;;;8.40;99.90;;;;;;5075324;28;20733;-63
2023/11/21 08:56:41;;;;;;;32.97;22.40;;;8.30;99.90;;;;;;5075522;28;20470;-63
2023/11/21 08:59:10;;;;;;;32.87;20.93;;;8.40;99.90;;;;;;5076108;28;20493;-63
2023/11/21 09:01:39;;;;;;;29.20;20.87;;;8.50;99.90;;;;;;5076010;28;20457;-63
2023/11/21 09:04:07;;;;;;;26.70;19.53;;;8.50;99.90;;;;;;5077537;28;20463;-63
2023/11/21 09:06:35;;;;;;;35.97;23.33;;;8.60;99.90;;;;;;5076551;28;20492;-63
2023/11/21 09:09:04;;;;;;;34.77;23.37;;;8.70;99.90;;;;;;5077180;28;20468;-63
2023/11/21 09:11:33;;;;;;;32.30;20.70;;;8.70;99.90;;;;;;5077564;28;20468;-63
2023/11/21 09:14:00;;;;;;;37.90;18.27;;;8.70;99.90;;;;;;5077653;28;20569;-63
2023/11/21 09:16:28;;;;;;;34.83;20.60;;;8.70;99.90;;;;;;5077292;28;20461;-63
2023/11/21 09:18:56;;;;;;;32.70;22.37;;;8.80;99.90;;;;;;5077331;28;21037;-64
2023/11/21 09:21:25;;;;;;;36.17;22.47;;;8.80;99.90;;;;;;5077270;28;20457;-64
2023/11/21 09:23:52;;;;;;;36.10;23.63;;;8.90;99.90;;;;;;5077500;28;20749;-65
2023/11/21 09:26:19;;;;;;;38.50;23.87;;;9.00;99.90;;;;;;5077270;28;21000;-65
2023/11/21 09:28:47;;;;;;;39.30;23.67;;;9.00;99.90;;;;;;5077457;28;20456;-65
2023/11/21 09:31:15;;;;;;;42.10;25.60;;;8.80;99.90;;;;;;5076428;28;20544;-65
2023/11/21 09:33:42;;;;;;;46.43;26.30;;;8.80;99.90;;;;;;5077297;28;20469;-64
2023/11/21 09:36:14;;;;;;;41.00;25.50;;;8.80;99.90;;;;;;5077029;28;20465;-65
2023/11/21 09:38:42;;;;;;;43.67;25.27;;;8.90;99.90;;;;;;5077107;28;20493;-65
2023/11/21 09:41:19;;;;;;;43.23;22.57;;;8.90;99.90;;;;;;5076752;28;20469;-64
2023/11/21 09:43:52;;;;;;;42.23;23.60;;;8.80;99.90;;;;;;5076963;28;20494;-64
2023/11/21 09:46:22;;;;;;;41.57;24.50;;;9.00;99.90;;;;;;5077342;28;20896;-64
2023/11/21 09:48:52;;;;;;;35.70;20.60;;;9.00;99.90;;;;;;5077139;28;20453;-64
2023/11/21 09:51:23;;;;;;;34.03;22.80;;;9.00;99.90;;;;;;5076899;28;20515;-64
2023/11/21 09:53:53;;;;;;;37.00;22.20;;;9.00;99.90;;;;;;5076890;28;20555;-64
2023/11/21 09:56:23;;;;;;;40.83;23.83;;;9.20;99.90;;;;;;5076122;28;20957;-65
2023/11/21 09:58:53;;;;;;;39.03;22.80;;;9.20;99.90;;;;;;5075678;28;20584;-64
2023/11/21 10:01:24;;;;;;;37.07;20.30;;;9.20;99.90;;;;;;5076082;28;20457;-64
2023/11/21 10:03:51;;;;;;;38.93;22.80;;;9.30;99.90;;;;;;5076718;28;20863;-64
2023/11/21 10:06:21;;;;;;;37.30;21.20;;;9.40;99.90;;;;;;5076415;28;20542;-64
2023/11/21 10:08:50;;;;;;;37.13;20.97;;;9.30;99.90;;;;;;5076678;28;20449;-64
2023/11/21 10:11:21;;;;;;;40.43;20.80;;;9.40;99.90;;;;;;5076857;28;20484;-64
2023/11/21 10:13:51;;;;;;;39.00;20.47;;;9.20;99.90;;;;;;5076519;28;20886;-64
2023/11/21 10:16:22;;;;;;;36.23;20.37;;;9.20;99.90;;;;;;5076653;28;20468;-64
2023/11/21 10:18:54;;;;;;;34.07;19.20;;;9.20;99.90;;;;;;5077096;28;20576;-63
2023/11/21 10:21:23;;;;;;;37.30;21.17;;;9.30;99.90;;;;;;5076564;28;20767;-64
2023/11/21 10:23:54;;;;;;;34.70;19.13;;;9.20;99.90;;;;;;5076839;28;20757;-63
2023/11/21 10:26:23;;;;;;;33.80;18.70;;;9.10;99.90;;;;;;5076551;28;20464;-64
2023/11/21 10:28:58;;;;;;;37.43;19.20;;;9.20;99.90;;;;;;5076445;28;20453;-64
2023/11/21 10:31:27;;;;;;;34.83;18.30;;;9.30;99.90;;;;;;5077855;28;20461;-64
2023/11/21 10:33:55;;;;;;;36.83;17.90;;;9.40;99.90;;;;;;5079177;28;20475;-63
2023/11/21 10:36:28;;;;;;;36.83;20.40;;;9.30;99.90;;;;;;5079357;28;20549;-64
2023/11/21 10:38:57;;;;;;;33.67;18.43;;;9.50;99.90;;;;;;5078569;28;20580;-63
2023/11/21 10:41:25;;;;;;;31.20;18.50;;;9.40;99.90;;;;;;5078421;28;20461;-63
2023/11/21 10:43:56;;;;;;;30.50;18.50;;;9.40;99.90;;;;;;5078880;28;20489;-63
2023/11/21 10:46:25;;;;;;;30.70;17.30;;;9.40;99.90;;;;;;5079571;28;20461;-63
2023/11/21 10:48:55;;;;;;;37.37;19.60;;;9.50;99.90;;;;;;5080279;28;20731;-63
2023/11/21 10:51:24;;;;;;;32.63;18.60;;;9.80;99.90;;;;;;5080144;28;20518;-63
2023/11/21 10:53:53;;;;;;;32.87;19.00;;;9.80;99.90;;;;;;5079839;28;20515;-63
2023/11/21 10:56:24;;;;;;;32.93;20.00;;;9.90;99.90;;;;;;5080311;28;20555;-63
2023/11/21 10:58:52;;;;;;;37.13;20.20;;;9.70;99.90;;;;;;5077636;28;20571;-62
2023/11/21 11:01:21;;;;;;;31.00;18.43;;;9.70;99.90;;;;;;5079622;28;20465;-63
2023/11/21 11:03:49;;;;;;;25.43;16.00;;;9.70;99.90;;;;;;5078868;28;20457;-63
2023/11/21 11:06:17;;;;;;;26.23;15.50;;;9.80;99.90;;;;;;5079094;28;22170;-62
2023/11/21 11:08:45;;;;;;;23.30;14.90;;;9.80;99.90;;;;;;5080083;28;20544;-62
2023/11/21 11:11:14;;;;;;;26.73;14.50;;;9.90;99.90;;;;;;5079630;28;20938;-62
2023/11/21 11:13:46;;;;;;;23.67;15.47;;;9.90;99.90;;;;;;5079706;28;20500;-62
2023/11/21 11:16:17;;;;;;;26.87;15.90;;;10.00;99.90;;;;;;5079932;28;20464;-63
2023/11/21 11:18:47;;;;;;;25.23;13.63;;;10.00;99.90;;;;;;5079756;28;20547;-63
2023/11/21 11:21:25;;;;;;;23.23;14.37;;;10.00;99.90;;;;;;5079680;28;20874;-63
2023/11/21 11:24:19;;;;;;;27.60;14.23;;;10.30;99.90;;;;;;5078366;28;20485;-63
2023/11/21 11:26:57;;;;;;;25.87;13.10;;;10.40;99.90;;;;;;5078508;28;20707;-62
2023/11/21 11:29:34;;;;;;;23.77;13.37;;;10.50;99.90;;;;;;5078278;28;20453;-63
2023/11/21 11:32:11;;;;;;;22.97;13.73;;;10.60;99.90;;;;;;5078073;28;20607;-63
2023/11/21 11:34:44;;;;;;;23.50;15.07;;;10.50;99.90;;;;;;5077969;28;20467;-62
2023/11/21 11:37:13;;;;;;;21.70;12.70;;;10.50;99.90;;;;;;5076898;28;20531;-62
2023/11/21 11:39:43;;;;;;;26.27;13.10;;;10.50;99.90;;;;;;5077550;28;20493;-63
2023/11/21 11:42:14;;;;;;;27.70;13.90;;;10.40;99.90;;;;;;5077108;28;20462;-62
2023/11/21 11:44:51;;;;;;;27.63;14.73;;;10.40;99.90;;;;;;5077183;28;20917;-62
2023/11/21 11:47:22;;;;;;;23.40;13.33;;;10.60;99.90;;;;;;5078056;28;20460;-62
2023/11/21 11:50:00;;;;;;;22.20;13.00;;;10.50;99.90;;;;;;5079046;28;20547;-62
2023/11/21 11:52:35;;;;;;;29.23;15.10;;;10.40;99.90;;;;;;5078551;28;20483;-62
2023/11/21 11:55:03;;;;;;;28.83;16.90;;;10.40;99.90;;;;;;5077772;28;20881;-63
2023/11/21 11:57:33;;;;;;;28.73;17.60;;;10.20;99.90;;;;;;5077973;28;20468;-63
2023/11/21 12:00:19;;;;;;;31.70;16.50;;;10.20;99.90;;;;;;5077398;28;20517;-62
2023/11/21 12:02:49;;;;;;;31.50;16.03;;;10.20;99.90;;;;;;5077473;28;20461;-62
2023/11/21 12:05:18;;;;;;;31.23;17.80;;;10.10;99.90;;;;;;5077232;28;20457;-63
2023/11/21 12:07:52;;;;;;;33.67;17.53;;;10.00;99.90;;;;;;5077037;28;20489;-63
2023/11/21 12:10:22;;;;;;;29.00;17.13;;;10.00;99.90;;;;;;5077243;28;20543;-62
2023/11/21 12:12:52;;;;;;;31.20;17.87;;;10.00;99.90;;;;;;5077347;28;20468;-62
2023/11/21 12:15:21;;;;;;;30.80;17.57;;;9.90;99.90;;;;;;5078474;28;20463;-62
2023/11/21 12:17:49;;;;;;;33.17;17.80;;;9.80;99.90;;;;;;5078340;28;20443;-62
2023/11/21 12:20:20;;;;;;;35.43;17.77;;;9.80;99.90;;;;;;5078350;28;20489;-61
2023/11/21 12:22:48;;;;;;;32.07;18.70;;;9.70;99.90;;;;;;5078545;28;20556;-62
2023/11/21 12:25:18;;;;;;;38.10;18.97;;;9.70;99.90;;;;;;5078179;28;20510;-62
2023/11/21 12:27:46;;;;;;;38.50;19.30;;;9.60;99.90;;;;;;5078308;28;20510;-61
2023/11/21 12:30:16;;;;;;;41.87;20.57;;;9.60;99.90;;;;;;5075904;28;20477;-61
2023/11/21 12:32:46;;;;;;;37.10;20.37;;;9.70;99.90;;;;;;5076117;28;20935;-61
2023/11/21 12:35:13;;;;;;;34.90;20.17;;;9.90;99.90;;;;;;5078165;28;20480;-62
2023/11/21 12:37:42;;;;;;;39.40;21.93;;;9.80;99.90;;;;;;5077987;28;20458;-61
2023/11/21 12:40:14;;;;;;;44.77;21.87;;;9.80;99.90;;;;;;5078384;28;20778;-62
2023/11/21 12:42:43;;;;;;;39.53;21.50;;;9.80;99.90;;;;;;5078035;28;20467;-62